Time;durP1;ratioP1;P1;durP2;ratioP2;P2;SDS_P1;SDS_P2;PMS_P1;PMS_P2;Temp;Humidity;BMP_temperature;BMP_pressure;BME280_temperature;BME280_humidity;BME280_pressure;Samples;Min_cycle;Max_cycle;Signal;HPM_P1;HPM_P2
2023/05/30 00:00:14;;;;;;;4.30;3.47;;;;;;;;;;5081338;28;20196;-68
2023/05/30 00:02:42;;;;;;;5.20;3.40;;;;;;;;;;5081652;28;20496;-68
2023/05/30 00:05:09;;;;;;;3.83;3.50;;;;;;;;;;5080955;28;20196;-68
2023/05/30 00:07:35;;;;;;;4.60;3.13;;;;;;;;;;5081155;28;20535;-68
2023/05/30 00:10:02;;;;;;;3.47;3.20;;;;;;;;;;5081535;28;20431;-68
2023/05/30 00:12:28;;;;;;;4.00;3.05;;;;;;;;;;5081088;28;20224;-68
2023/05/30 00:14:59;;;;;;;4.85;3.45;;;;;;;;;;5082321;28;20193;-68
2023/05/30 00:17:26;;;;;;;5.55;3.42;;;;;;;;;;5084655;28;20503;-68
2023/05/30 00:19:52;;;;;;;4.13;3.53;;;;;;;;;;5084627;28;20508;-68
2023/05/30 00:22:19;;;;;;;3.60;3.30;;;;;;;;;;5084806;28;20512;-68
2023/05/30 00:24:46;;;;;;;5.32;3.50;;;;;;;;;;5084547;28;20196;-68
2023/05/30 00:27:13;;;;;;;3.88;3.58;;;;;;;;;;5084582;28;20220;-68
2023/05/30 00:29:39;;;;;;;4.65;3.60;;;;;;;;;;5084861;28;20208;-68
2023/05/30 00:32:07;;;;;;;5.25;3.33;;;;;;;;;;5084303;28;20220;-68
2023/05/30 00:34:33;;;;;;;4.07;3.20;;;;;;;;;;5084421;28;20208;-68
2023/05/30 00:37:00;;;;;;;4.28;3.90;;;;;;;;;;5084621;28;20196;-68
2023/05/30 00:39:26;;;;;;;3.40;3.15;;;;;;;;;;5084197;28;20246;-68
2023/05/30 00:41:52;;;;;;;3.70;3.33;;;;;;;;;;5084452;28;20192;-68
2023/05/30 00:44:19;;;;;;;4.35;3.42;;;;;;;;;;5084232;28;20553;-68
2023/05/30 00:46:45;;;;;;;3.55;3.17;;;;;;;;;;5084171;28;20197;-68
2023/05/30 00:49:13;;;;;;;3.83;3.25;;;;;;;;;;5084343;28;20211;-68
2023/05/30 00:51:39;;;;;;;3.35;2.88;;;;;;;;;;5084048;28;20220;-68
2023/05/30 00:54:06;;;;;;;3.05;2.70;;;;;;;;;;5084269;28;20219;-68
2023/05/30 00:56:32;;;;;;;3.90;3.53;;;;;;;;;;5084010;28;20201;-68
2023/05/30 00:58:58;;;;;;;4.63;3.22;;;;;;;;;;5084096;28;20549;-68
2023/05/30 01:01:25;;;;;;;3.65;3.30;;;;;;;;;;5083703;28;20200;-68
2023/05/30 01:03:51;;;;;;;3.42;3.10;;;;;;;;;;5083694;28;20218;-68
2023/05/30 01:06:20;;;;;;;6.30;3.45;;;;;;;;;;5083829;28;20427;-68
2023/05/30 01:08:46;;;;;;;5.07;3.35;;;;;;;;;;5083591;28;20205;-68
2023/05/30 01:11:18;;;;;;;6.32;3.25;;;;;;;;;;5083452;28;20216;-68
2023/05/30 01:13:48;;;;;;;3.78;3.35;;;;;;;;;;5083420;28;20508;-68
2023/05/30 01:16:17;;;;;;;3.58;3.28;;;;;;;;;;5083890;28;20368;-68
2023/05/30 01:18:46;;;;;;;3.97;3.25;;;;;;;;;;5083446;28;20246;-68
2023/05/30 01:21:13;;;;;;;3.63;3.33;;;;;;;;;;5083653;28;20193;-68
2023/05/30 01:23:50;;;;;;;4.95;3.50;;;;;;;;;;5083632;28;20201;-68
2023/05/30 01:26:32;;;;;;;8.70;3.33;;;;;;;;;;5083367;28;20196;-68
2023/05/30 01:29:02;;;;;;;5.53;3.25;;;;;;;;;;5076646;28;20216;-68
2023/05/30 01:31:28;;;;;;;4.22;3.55;;;;;;;;;;5083351;28;20239;-68
2023/05/30 01:33:55;;;;;;;5.07;3.50;;;;;;;;;;5082646;28;20542;-68
2023/05/30 01:36:21;;;;;;;3.85;3.55;;;;;;;;;;5083314;28;20205;-68
2023/05/30 01:38:48;;;;;;;3.83;3.20;;;;;;;;;;5083305;28;20196;-68
2023/05/30 01:41:16;;;;;;;3.85;3.53;;;;;;;;;;5083321;28;20210;-68
2023/05/30 01:43:47;;;;;;;4.38;3.40;;;;;;;;;;5082835;28;20561;-67
2023/05/30 01:46:21;;;;;;;5.60;3.55;;;;;;;;;;5083065;28;20197;-67
2023/05/30 01:48:56;;;;;;;4.40;3.40;;;;;;;;;;5082764;28;20501;-67
2023/05/30 01:51:25;;;;;;;3.65;3.45;;;;;;;;;;5082994;28;20227;-67
2023/05/30 01:53:56;;;;;;;5.40;3.50;;;;;;;;;;5074464;28;20196;-67
2023/05/30 01:56:22;;;;;;;4.25;3.50;;;;;;;;;;5082935;28;20203;-67
2023/05/30 01:58:49;;;;;;;4.00;3.60;;;;;;;;;;5082593;28;20238;-67
2023/05/30 02:01:18;;;;;;;4.93;3.42;;;;;;;;;;5082538;28;20201;-67
2023/05/30 02:03:45;;;;;;;3.75;3.35;;;;;;;;;;5082484;28;20199;-67
2023/05/30 02:06:11;;;;;;;6.75;3.30;;;;;;;;;;5082467;28;20192;-67
2023/05/30 02:08:37;;;;;;;3.58;3.28;;;;;;;;;;5082541;28;20207;-67
2023/05/30 02:11:04;;;;;;;3.50;3.20;;;;;;;;;;5082473;28;20216;-67
2023/05/30 02:13:30;;;;;;;3.72;3.42;;;;;;;;;;5082139;28;20265;-67
2023/05/30 02:15:56;;;;;;;4.03;3.40;;;;;;;;;;5082920;28;20199;-67
2023/05/30 02:18:27;;;;;;;3.78;2.97;;;;;;;;;;5082570;28;20200;-67
2023/05/30 02:20:53;;;;;;;6.13;3.30;;;;;;;;;;5082349;28;20527;-67
2023/05/30 02:23:19;;;;;;;3.65;3.35;;;;;;;;;;5082148;28;20238;-67
2023/05/30 02:25:46;;;;;;;3.97;3.55;;;;;;;;;;5082181;28;20199;-67
2023/05/30 02:28:12;;;;;;;6.00;3.53;;;;;;;;;;5082055;28;20217;-67
2023/05/30 02:30:38;;;;;;;4.25;3.85;;;;;;;;;;5082292;28;20246;-67
2023/05/30 02:33:05;;;;;;;3.50;3.20;;;;;;;;;;5082334;28;20220;-67
2023/05/30 02:35:32;;;;;;;5.50;3.35;;;;;;;;;;5082031;28;20200;-67
2023/05/30 02:37:59;;;;;;;4.90;3.35;;;;;;;;;;5081711;28;20210;-67
2023/05/30 02:40:25;;;;;;;4.07;3.78;;;;;;;;;;5082161;28;20208;-67
2023/05/30 02:42:51;;;;;;;4.43;3.45;;;;;;;;;;5081849;28;20193;-67
2023/05/30 02:45:17;;;;;;;3.70;3.40;;;;;;;;;;5082124;28;20200;-67
2023/05/30 02:47:44;;;;;;;5.22;3.85;;;;;;;;;;5082037;28;20201;-67
2023/05/30 02:50:10;;;;;;;4.13;3.83;;;;;;;;;;5082018;28;20211;-67
2023/05/30 02:52:38;;;;;;;5.25;3.20;;;;;;;;;;5081840;28;20216;-67
2023/05/30 02:55:04;;;;;;;3.67;3.38;;;;;;;;;;5081856;28;20196;-67
2023/05/30 02:57:32;;;;;;;5.13;3.63;;;;;;;;;;5081666;28;20208;-67
2023/05/30 02:59:58;;;;;;;3.88;3.10;;;;;;;;;;5082113;28;20411;-67
2023/05/30 03:02:24;;;;;;;7.20;3.78;;;;;;;;;;5082224;28;20529;-67
2023/05/30 03:04:50;;;;;;;5.53;4.00;;;;;;;;;;5081603;28;20411;-67
2023/05/30 03:07:17;;;;;;;4.20;3.80;;;;;;;;;;5081801;28;20215;-67
2023/05/30 03:09:45;;;;;;;5.55;3.67;;;;;;;;;;5081714;28;20200;-67
2023/05/30 03:12:11;;;;;;;8.32;4.00;;;;;;;;;;5081585;28;20224;-67
2023/05/30 03:14:37;;;;;;;5.45;3.47;;;;;;;;;;5081668;28;20200;-67
2023/05/30 03:17:05;;;;;;;4.72;3.60;;;;;;;;;;5081733;28;20204;-67
2023/05/30 03:19:31;;;;;;;4.47;4.13;;;;;;;;;;5081490;28;20267;-67
2023/05/30 03:21:57;;;;;;;7.57;3.65;;;;;;;;;;5081716;28;20505;-67
2023/05/30 03:24:24;;;;;;;6.22;4.40;;;;;;;;;;5081404;28;20204;-67
2023/05/30 03:26:51;;;;;;;6.63;4.20;;;;;;;;;;5081425;28;20215;-67
2023/05/30 03:29:18;;;;;;;5.80;4.47;;;;;;;;;;5081692;28;20211;-67
2023/05/30 03:31:44;;;;;;;6.82;4.47;;;;;;;;;;5081578;28;20232;-67
2023/05/30 03:34:10;;;;;;;5.90;3.65;;;;;;;;;;5081583;28;20250;-67
2023/05/30 03:36:37;;;;;;;5.68;3.88;;;;;;;;;;5081408;28;20433;-67
2023/05/30 03:39:03;;;;;;;4.55;3.95;;;;;;;;;;5081426;28;20512;-67
2023/05/30 03:41:29;;;;;;;6.50;4.22;;;;;;;;;;5081611;28;20207;-67
2023/05/30 03:43:57;;;;;;;5.18;3.85;;;;;;;;;;5081391;28;20246;-68
2023/05/30 03:46:23;;;;;;;4.00;3.50;;;;;;;;;;5081589;28;20197;-68
2023/05/30 03:48:49;;;;;;;6.25;4.10;;;;;;;;;;5081301;28;20203;-68
2023/05/30 03:51:16;;;;;;;4.30;3.60;;;;;;;;;;5084943;28;20203;-68
2023/05/30 03:53:43;;;;;;;5.47;3.80;;;;;;;;;;5084871;28;20512;-68
2023/05/30 03:56:09;;;;;;;4.10;3.55;;;;;;;;;;5085246;28;20197;-68
2023/05/30 03:58:35;;;;;;;7.43;4.25;;;;;;;;;;5085341;28;20548;-68
2023/05/30 04:01:03;;;;;;;4.25;3.95;;;;;;;;;;5085149;28;20304;-68
2023/05/30 04:03:29;;;;;;;4.22;3.80;;;;;;;;;;5084845;28;20200;-68
2023/05/30 04:05:58;;;;;;;5.07;3.72;;;;;;;;;;5084838;28;20377;-68
2023/05/30 04:08:24;;;;;;;6.00;3.97;;;;;;;;;;5084858;28;20231;-68
2023/05/30 04:10:50;;;;;;;4.72;4.13;;;;;;;;;;5084964;28;20200;-68
2023/05/30 04:13:17;;;;;;;4.35;3.95;;;;;;;;;;5084800;28;20220;-68
2023/05/30 04:15:43;;;;;;;4.70;3.47;;;;;;;;;;5084329;28;20425;-68
2023/05/30 04:18:11;;;;;;;5.70;3.95;;;;;;;;;;5084666;28;20199;-68
2023/05/30 04:20:37;;;;;;;4.93;3.90;;;;;;;;;;5084477;28;20490;-67
2023/05/30 04:23:03;;;;;;;4.40;3.67;;;;;;;;;;5085155;28;20518;-67
2023/05/30 04:25:30;;;;;;;5.40;3.75;;;;;;;;;;5084579;28;20515;-68
2023/05/30 04:27:58;;;;;;;5.20;3.60;;;;;;;;;;5084698;28;20251;-68
2023/05/30 04:30:24;;;;;;;3.75;3.33;;;;;;;;;;5084719;28;20203;-68
2023/05/30 04:32:50;;;;;;;6.60;4.10;;;;;;;;;;5084258;28;20392;-68
2023/05/30 04:35:18;;;;;;;4.35;3.47;;;;;;;;;;5084186;28;20193;-68
2023/05/30 04:37:45;;;;;;;6.38;3.80;;;;;;;;;;5084321;28;20200;-68
2023/05/30 04:40:12;;;;;;;3.58;3.28;;;;;;;;;;5084456;28;20196;-68
2023/05/30 04:42:38;;;;;;;6.75;4.07;;;;;;;;;;5084092;28;20208;-68
2023/05/30 04:45:05;;;;;;;12.25;3.92;;;;;;;;;;5084114;28;20263;-68
2023/05/30 04:47:33;;;;;;;6.35;4.15;;;;;;;;;;5084220;28;20193;-68
2023/05/30 04:50:00;;;;;;;3.70;3.40;;;;;;;;;;5083917;28;20196;-67
2023/05/30 04:52:28;;;;;;;4.85;3.28;;;;;;;;;;5084063;28;20220;-67
2023/05/30 04:54:55;;;;;;;3.90;3.58;;;;;;;;;;5083910;28;20239;-67
2023/05/30 04:57:21;;;;;;;6.60;4.25;;;;;;;;;;5084119;28;20204;-67
2023/05/30 04:59:47;;;;;;;5.90;3.67;;;;;;;;;;5083885;28;20381;-67
2023/05/30 05:02:14;;;;;;;6.05;3.97;;;;;;;;;;5083557;28;20258;-67
2023/05/30 05:04:40;;;;;;;5.80;3.75;;;;;;;;;;5083542;28;20239;-67
2023/05/30 05:07:06;;;;;;;9.85;4.00;;;;;;;;;;5083684;28;20204;-67
2023/05/30 05:09:34;;;;;;;5.20;3.70;;;;;;;;;;5083826;28;20224;-67
2023/05/30 05:12:01;;;;;;;4.30;3.65;;;;;;;;;;5083553;28;20547;-67
2023/05/30 05:14:27;;;;;;;3.58;3.20;;;;;;;;;;5083587;28;20268;-67
2023/05/30 05:16:53;;;;;;;5.85;3.70;;;;;;;;;;5083448;28;20254;-67
2023/05/30 05:19:19;;;;;;;4.20;3.80;;;;;;;;;;5083712;28;20439;-67
2023/05/30 05:21:46;;;;;;;7.43;3.95;;;;;;;;;;5083576;28;20204;-67
2023/05/30 05:24:12;;;;;;;6.88;3.80;;;;;;;;;;5083563;28;20235;-67
2023/05/30 05:26:40;;;;;;;10.93;4.05;;;;;;;;;;5083604;28;20204;-67
2023/05/30 05:29:06;;;;;;;5.22;4.07;;;;;;;;;;5075380;28;20266;-67
2023/05/30 05:31:33;;;;;;;8.18;3.80;;;;;;;;;;5083299;28;20204;-67
2023/05/30 05:33:59;;;;;;;6.63;3.90;;;;;;;;;;5083126;28;20224;-67
2023/05/30 05:36:25;;;;;;;5.40;4.13;;;;;;;;;;5083438;28;20242;-67
2023/05/30 05:38:52;;;;;;;6.97;3.80;;;;;;;;;;5083052;28;20242;-67
2023/05/30 05:41:18;;;;;;;7.72;3.80;;;;;;;;;;5083066;28;20216;-67
2023/05/30 05:43:45;;;;;;;6.32;3.67;;;;;;;;;;5083062;28;20219;-67
2023/05/30 05:46:12;;;;;;;6.82;3.83;;;;;;;;;;5083497;28;20431;-67
2023/05/30 05:48:38;;;;;;;8.00;3.90;;;;;;;;;;5083215;28;20218;-67
2023/05/30 05:51:04;;;;;;;7.57;5.38;;;;;;;;;;5083114;28;20203;-67
2023/05/30 05:53:31;;;;;;;5.60;4.28;;;;;;;;;;5083248;28;20239;-60
2023/05/30 05:55:57;;;;;;;6.50;5.32;;;;;;;;;;5083748;28;20226;-60
2023/05/30 05:58:24;;;;;;;5.50;3.97;;;;;;;;;;5083774;28;20211;-60
2023/05/30 06:00:52;;;;;;;6.13;3.67;;;;;;;;;;5083083;28;20238;-60
2023/05/30 06:03:18;;;;;;;6.70;3.88;;;;;;;;;;5083772;28;20184;-60
2023/05/30 06:05:44;;;;;;;6.75;3.65;;;;;;;;;;5083474;28;20204;-60
2023/05/30 06:08:10;;;;;;;4.22;3.42;;;;;;;;;;5070209;28;20204;-60
2023/05/30 06:10:37;;;;;;;6.10;3.80;;;;;;;;;;5066866;28;20251;-59
2023/05/30 06:13:03;;;;;;;6.53;3.92;;;;;;;;;;5076867;28;20224;-60
2023/05/30 06:15:29;;;;;;;5.15;3.42;;;;;;;;;;5077119;28;20567;-59
2023/05/30 06:17:57;;;;;;;5.65;3.90;;;;;;;;;;5073107;28;20204;-58
2023/05/30 06:20:23;;;;;;;5.38;3.70;;;;;;;;;;5074119;28;20435;-60
2023/05/30 06:22:49;;;;;;;8.05;3.75;;;;;;;;;;5073074;28;20212;-59
2023/05/30 06:25:16;;;;;;;7.68;3.83;;;;;;;;;;5075860;28;20209;-59
2023/05/30 06:27:42;;;;;;;8.18;3.88;;;;;;;;;;5075825;28;20227;-59
2023/05/30 06:30:09;;;;;;;12.55;4.05;;;;;;;;;;5071128;28;20208;-59
2023/05/30 06:32:35;;;;;;;9.80;3.83;;;;;;;;;;5074854;28;20278;-59
2023/05/30 06:35:04;;;;;;;7.72;3.58;;;;;;;;;;5075838;28;20216;-60
2023/05/30 06:37:30;;;;;;;8.55;3.83;;;;;;;;;;5075820;28;20220;-59
2023/05/30 06:39:56;;;;;;;11.23;3.83;;;;;;;;;;5076072;28;20215;-59
2023/05/30 06:42:23;;;;;;;5.47;3.53;;;;;;;;;;5076223;28;20408;-59
2023/05/30 06:44:49;;;;;;;7.15;3.83;;;;;;;;;;5074547;28;20208;-60
2023/05/30 06:47:15;;;;;;;7.45;3.83;;;;;;;;;;5075760;28;20208;-59
2023/05/30 06:49:41;;;;;;;5.03;3.78;;;;;;;;;;5076570;28;20212;-60
2023/05/30 06:52:09;;;;;;;6.82;3.60;;;;;;;;;;5075404;28;20439;-60
2023/05/30 06:54:35;;;;;;;6.07;3.78;;;;;;;;;;5075561;28;20219;-59
2023/05/30 06:57:04;;;;;;;5.53;3.78;;;;;;;;;;5076124;28;20216;-60
2023/05/30 06:59:30;;;;;;;6.43;3.22;;;;;;;;;;5076507;28;20219;-60
2023/05/30 07:01:56;;;;;;;6.22;3.60;;;;;;;;;;5075741;28;20212;-60
2023/05/30 07:04:24;;;;;;;8.98;3.63;;;;;;;;;;5076150;28;20204;-60
2023/05/30 07:06:50;;;;;;;8.23;4.00;;;;;;;;;;5076375;28;20527;-60
2023/05/30 07:09:18;;;;;;;4.97;3.05;;;;;;;;;;5075540;28;20262;-60
2023/05/30 07:11:44;;;;;;;6.30;3.63;;;;;;;;;;5076120;28;20216;-61
2023/05/30 07:14:11;;;;;;;4.35;3.58;;;;;;;;;;5073681;28;20228;-60
2023/05/30 07:16:37;;;;;;;6.75;3.72;;;;;;;;;;5075937;28;20236;-60
2023/05/30 07:19:03;;;;;;;4.85;3.17;;;;;;;;;;5076322;28;20217;-60
2023/05/30 07:21:29;;;;;;;4.13;3.67;;;;;;;;;;5075720;28;20216;-60
2023/05/30 07:23:56;;;;;;;6.70;3.33;;;;;;;;;;5076994;28;20463;-60
2023/05/30 07:26:23;;;;;;;5.00;3.03;;;;;;;;;;5080459;28;20524;-60
2023/05/30 07:28:50;;;;;;;5.57;3.38;;;;;;;;;;5079432;28;20548;-60
2023/05/30 07:31:16;;;;;;;4.82;3.47;;;;;;;;;;5078741;28;20482;-60
2023/05/30 07:33:42;;;;;;;7.18;3.60;;;;;;;;;;5074846;28;20229;-59
2023/05/30 07:36:10;;;;;;;6.68;3.63;;;;;;;;;;5079253;28;20215;-60
2023/05/30 07:38:36;;;;;;;4.03;3.20;;;;;;;;;;5078913;28;20219;-60
2023/05/30 07:41:03;;;;;;;4.45;3.40;;;;;;;;;;5079943;28;20208;-60
2023/05/30 07:43:30;;;;;;;4.13;3.13;;;;;;;;;;5078725;28;20200;-61
2023/05/30 07:45:56;;;;;;;3.55;3.25;;;;;;;;;;5079441;28;20258;-61
2023/05/30 07:48:24;;;;;;;5.70;3.78;;;;;;;;;;5079099;28;20216;-61
2023/05/30 07:50:50;;;;;;;7.40;3.65;;;;;;;;;;5076341;28;20234;-61
2023/05/30 07:53:16;;;;;;;5.90;4.05;;;;;;;;;;5079386;28;20258;-59
2023/05/30 07:55:43;;;;;;;6.93;3.50;;;;;;;;;;5079731;28;20296;-59
2023/05/30 07:58:09;;;;;;;3.72;3.38;;;;;;;;;;5079306;28;20235;-60
2023/05/30 08:00:37;;;;;;;8.57;3.70;;;;;;;;;;5076698;28;20618;-60
2023/05/30 08:03:03;;;;;;;8.05;3.75;;;;;;;;;;5078946;28;20457;-60
2023/05/30 08:05:29;;;;;;;3.88;3.47;;;;;;;;;;5079234;28;20212;-59
2023/05/30 08:07:55;;;;;;;7.07;3.75;;;;;;;;;;5078475;28;20216;-60
2023/05/30 08:10:22;;;;;;;6.70;4.00;;;;;;;;;;5079870;28;20215;-60
2023/05/30 08:12:48;;;;;;;5.93;3.60;;;;;;;;;;5078655;28;20212;-60
2023/05/30 08:15:14;;;;;;;6.07;3.58;;;;;;;;;;5078279;28;20204;-59
2023/05/30 08:17:44;;;;;;;4.78;3.60;;;;;;;;;;5079264;28;20254;-60
2023/05/30 08:20:12;;;;;;;5.30;3.42;;;;;;;;;;5079935;28;20216;-60
2023/05/30 08:22:38;;;;;;;6.28;3.50;;;;;;;;;;5079614;28;20524;-59
2023/05/30 08:25:05;;;;;;;4.57;3.53;;;;;;;;;;5079319;28;20279;-60
2023/05/30 08:27:32;;;;;;;4.07;3.40;;;;;;;;;;5078806;28;20228;-60
2023/05/30 08:29:59;;;;;;;4.13;3.45;;;;;;;;;;5079251;28;20212;-60
2023/05/30 08:32:26;;;;;;;4.75;3.63;;;;;;;;;;5078442;28;20476;-60
2023/05/30 08:34:53;;;;;;;6.00;3.70;;;;;;;;;;5077765;28;20303;-60
2023/05/30 08:37:20;;;;;;;5.40;3.60;;;;;;;;;;5078416;28;20254;-60
2023/05/30 08:39:46;;;;;;;8.05;3.45;;;;;;;;;;5078358;28;20211;-60
2023/05/30 08:42:13;;;;;;;5.57;3.83;;;;;;;;;;5078341;28;20231;-60
2023/05/30 08:44:39;;;;;;;5.28;3.70;;;;;;;;;;5078561;28;20567;-60
2023/05/30 08:47:07;;;;;;;9.15;3.88;;;;;;;;;;5078773;28;20423;-60
2023/05/30 08:49:35;;;;;;;4.40;3.55;;;;;;;;;;5078851;28;20220;-60
2023/05/30 08:52:03;;;;;;;4.60;3.13;;;;;;;;;;5079147;28;20216;-61
2023/05/30 08:54:33;;;;;;;5.28;3.30;;;;;;;;;;5079244;28;20224;-60
2023/05/30 08:57:01;;;;;;;6.57;3.60;;;;;;;;;;5077494;28;20432;-60
2023/05/30 08:59:27;;;;;;;7.30;3.50;;;;;;;;;;5077836;28;20212;-60
2023/05/30 09:01:54;;;;;;;9.40;3.72;;;;;;;;;;5077609;28;20212;-60
2023/05/30 09:04:22;;;;;;;4.05;3.58;;;;;;;;;;5072048;28;20279;-61
2023/05/30 09:06:49;;;;;;;7.22;3.28;;;;;;;;;;5079247;28;20216;-60
2023/05/30 09:09:17;;;;;;;7.10;3.17;;;;;;;;;;5077602;28;20239;-61
2023/05/30 09:11:43;;;;;;;4.70;3.25;;;;;;;;;;5077096;28;20216;-61
2023/05/30 09:14:09;;;;;;;6.13;3.67;;;;;;;;;;5075999;28;20228;-61
2023/05/30 09:16:37;;;;;;;9.30;3.70;;;;;;;;;;5076453;28;20212;-60
2023/05/30 09:19:03;;;;;;;5.90;3.10;;;;;;;;;;5077516;28;20215;-59
2023/05/30 09:21:31;;;;;;;4.75;3.33;;;;;;;;;;5073915;28;20476;-59
2023/05/30 09:24:00;;;;;;;6.32;3.45;;;;;;;;;;5073584;28;20230;-60
2023/05/30 09:26:28;;;;;;;3.88;3.33;;;;;;;;;;5074470;28;20208;-60
2023/05/30 09:28:54;;;;;;;6.88;3.70;;;;;;;;;;5074586;28;20236;-61
2023/05/30 09:31:22;;;;;;;6.03;3.17;;;;;;;;;;5075151;28;20391;-59
2023/05/30 09:33:50;;;;;;;3.90;3.55;;;;;;;;;;5076059;28;20243;-59
2023/05/30 09:36:18;;;;;;;8.38;3.47;;;;;;;;;;5076867;28;20249;-60
2023/05/30 09:38:54;;;;;;;5.28;3.22;;;;;;;;;;5077204;28;20564;-61
2023/05/30 09:41:21;;;;;;;6.68;3.45;;;;;;;;;;5076968;28;20200;-60
2023/05/30 09:43:53;;;;;;;6.70;3.30;;;;;;;;;;5076664;28;20200;-61
2023/05/30 09:46:20;;;;;;;4.63;3.28;;;;;;;;;;5076452;28;20279;-60
2023/05/30 09:48:46;;;;;;;4.30;3.40;;;;;;;;;;5075803;28;20531;-60
2023/05/30 09:51:14;;;;;;;6.85;3.42;;;;;;;;;;5076332;28;20208;-60
2023/05/30 09:53:53;;;;;;;6.85;3.42;;;;;;;;;;5076093;28;20239;-60
2023/05/30 09:56:20;;;;;;;6.10;3.53;;;;;;;;;;5068616;28;20215;-60
2023/05/30 09:58:46;;;;;;;5.00;3.60;;;;;;;;;;5076764;28;20247;-60
2023/05/30 10:01:17;;;;;;;6.00;3.63;;;;;;;;;;5076462;28;20253;-60
2023/05/30 10:03:44;;;;;;;8.23;3.08;;;;;;;;;;5074947;28;20238;-60
2023/05/30 10:06:13;;;;;;;8.52;3.70;;;;;;;;;;5076603;28;20229;-60
2023/05/30 10:08:41;;;;;;;7.00;3.05;;;;;;;;;;5076308;28;20501;-60
2023/05/30 10:11:08;;;;;;;3.85;3.38;;;;;;;;;;5075894;28;20212;-60
2023/05/30 10:13:34;;;;;;;8.45;3.90;;;;;;;;;;5076223;28;20269;-59
2023/05/30 10:16:01;;;;;;;7.45;3.35;;;;;;;;;;5076499;28;20250;-59
2023/05/30 10:18:30;;;;;;;7.97;3.40;;;;;;;;;;5076218;28;20266;-60
2023/05/30 10:20:58;;;;;;;6.78;3.50;;;;;;;;;;5076007;28;20525;-60
2023/05/30 10:23:24;;;;;;;7.18;3.38;;;;;;;;;;5075891;28;20588;-60
2023/05/30 10:25:52;;;;;;;5.53;3.13;;;;;;;;;;5076723;28;20216;-60
2023/05/30 10:28:20;;;;;;;3.63;3.13;;;;;;;;;;5075911;28;20222;-60
2023/05/30 10:30:48;;;;;;;7.35;3.70;;;;;;;;;;5076417;28;20302;-60
2023/05/30 10:33:16;;;;;;;7.10;3.60;;;;;;;;;;5076294;28;20211;-59
2023/05/30 10:35:46;;;;;;;4.65;3.35;;;;;;;;;;5076271;28;20250;-60
2023/05/30 10:38:13;;;;;;;6.25;3.00;;;;;;;;;;5076557;28;20219;-60
2023/05/30 10:40:42;;;;;;;4.75;3.22;;;;;;;;;;5076427;28;20454;-60
2023/05/30 10:43:18;;;;;;;4.05;3.33;;;;;;;;;;5077704;28;20215;-60
2023/05/30 10:45:50;;;;;;;4.05;2.92;;;;;;;;;;5076170;28;20207;-60
2023/05/30 10:48:21;;;;;;;5.65;2.97;;;;;;;;;;5076142;28;20404;-60
2023/05/30 10:50:51;;;;;;;5.70;2.97;;;;;;;;;;5076237;28;20207;-60
2023/05/30 10:53:18;;;;;;;5.70;3.13;;;;;;;;;;5076571;28;20519;-59
2023/05/30 10:55:45;;;;;;;4.30;2.97;;;;;;;;;;5076365;28;20224;-60
2023/05/30 10:58:31;;;;;;;4.30;3.10;;;;;;;;;;5076709;28;20212;-61
2023/05/30 11:01:17;;;;;;;5.85;3.25;;;;;;;;;;5076010;28;20215;-60
2023/05/30 11:03:45;;;;;;;7.35;3.38;;;;;;;;;;5073378;28;20212;-61
2023/05/30 11:06:15;;;;;;;4.53;3.33;;;;;;;;;;5076762;28;20279;-60
2023/05/30 11:08:42;;;;;;;7.72;3.15;;;;;;;;;;5076557;28;20603;-60
2023/05/30 11:11:16;;;;;;;5.93;3.10;;;;;;;;;;5075542;28;20235;-60
2023/05/30 11:13:44;;;;;;;5.53;2.80;;;;;;;;;;5076182;28;20211;-60
2023/05/30 11:16:21;;;;;;;8.68;3.30;;;;;;;;;;5075991;28;20573;-61
2023/05/30 11:18:49;;;;;;;5.30;3.08;;;;;;;;;;5075501;28;20219;-61
2023/05/30 11:21:37;;;;;;;4.53;3.13;;;;;;;;;;5075582;28;20212;-61
2023/05/30 11:24:04;;;;;;;3.60;3.13;;;;;;;;;;5075334;28;20254;-61
2023/05/30 11:26:45;;;;;;;5.18;3.20;;;;;;;;;;5077237;28;20443;-61
2023/05/30 11:29:27;;;;;;;43.97;28.33;;;;;;;;;;5075736;28;20219;-60
2023/05/30 11:31:53;;;;;;;4.00;3.20;;;;;;;;;;5074679;28;20554;-61
2023/05/30 11:34:20;;;;;;;5.28;3.10;;;;;;;;;;5076428;28;20549;-60
2023/05/30 11:36:49;;;;;;;5.28;3.17;;;;;;;;;;5075107;28;20516;-61
2023/05/30 11:39:15;;;;;;;7.93;2.88;;;;;;;;;;5075072;28;20539;-61
2023/05/30 11:41:42;;;;;;;5.25;3.10;;;;;;;;;;5074867;28;20215;-60
2023/05/30 11:44:08;;;;;;;5.32;3.30;;;;;;;;;;5075537;28;20403;-60
2023/05/30 11:46:35;;;;;;;6.93;3.53;;;;;;;;;;5074669;28;20230;-60
2023/05/30 11:49:04;;;;;;;6.88;2.97;;;;;;;;;;5075324;28;20212;-60
2023/05/30 11:51:31;;;;;;;3.53;2.88;;;;;;;;;;5074785;28;20219;-60
2023/05/30 11:53:59;;;;;;;6.07;3.40;;;;;;;;;;5075368;28;20307;-61
2023/05/30 11:56:29;;;;;;;7.93;2.97;;;;;;;;;;5075089;28;20219;-60
2023/05/30 11:58:55;;;;;;;6.13;3.08;;;;;;;;;;5068916;28;20216;-61
2023/05/30 12:01:22;;;;;;;4.22;3.10;;;;;;;;;;5075973;28;20231;-61
2023/05/30 12:03:48;;;;;;;6.18;3.30;;;;;;;;;;5068857;28;20621;-61
2023/05/30 12:06:15;;;;;;;5.35;2.78;;;;;;;;;;5075564;28;20208;-61
2023/05/30 12:08:41;;;;;;;7.72;3.13;;;;;;;;;;5074969;28;20219;-61
2023/05/30 12:11:10;;;;;;;5.07;3.13;;;;;;;;;;5077489;28;20253;-61
2023/05/30 12:13:36;;;;;;;5.15;2.80;;;;;;;;;;5079611;28;20211;-61
2023/05/30 12:16:02;;;;;;;7.65;3.13;;;;;;;;;;5080093;28;20249;-60
2023/05/30 12:18:28;;;;;;;3.65;2.90;;;;;;;;;;5080468;28;20497;-60
2023/05/30 12:20:55;;;;;;;5.00;3.00;;;;;;;;;;5080043;28;20212;-61
2023/05/30 12:23:23;;;;;;;2.97;2.72;;;;;;;;;;5080087;28;20269;-61
2023/05/30 12:25:50;;;;;;;6.82;3.00;;;;;;;;;;5079853;28;20204;-70
2023/05/30 12:28:17;;;;;;;4.63;2.70;;;;;;;;;;5077591;28;20227;-70
2023/05/30 12:30:44;;;;;;;5.28;2.88;;;;;;;;;;5077959;28;20531;-70
2023/05/30 12:33:13;;;;;;;7.10;3.33;;;;;;;;;;5077132;28;20216;-70
2023/05/30 12:35:40;;;;;;;4.40;2.88;;;;;;;;;;5077168;28;20692;-70
2023/05/30 12:38:06;;;;;;;6.55;2.80;;;;;;;;;;5077633;28;20211;-69
2023/05/30 12:40:33;;;;;;;4.45;2.80;;;;;;;;;;5076078;28;20260;-70
2023/05/30 12:42:59;;;;;;;4.63;2.70;;;;;;;;;;5077424;28;20254;-70
2023/05/30 12:45:27;;;;;;;6.07;2.65;;;;;;;;;;5076668;28;20249;-70
2023/05/30 12:47:53;;;;;;;10.30;3.10;;;;;;;;;;5077041;28;20216;-70
2023/05/30 12:50:19;;;;;;;8.98;3.13;;;;;;;;;;5077945;28;20227;-70
2023/05/30 12:52:46;;;;;;;6.60;3.00;;;;;;;;;;5077304;28;20549;-69
2023/05/30 12:55:12;;;;;;;5.68;3.20;;;;;;;;;;5077109;28;20303;-69
2023/05/30 12:57:38;;;;;;;3.35;2.70;;;;;;;;;;5077608;28;20411;-69
2023/05/30 13:00:06;;;;;;;6.20;3.03;;;;;;;;;;5076956;28;20204;-69
2023/05/30 13:02:35;;;;;;;6.40;3.13;;;;;;;;;;5077396;28;20209;-69
2023/05/30 13:05:01;;;;;;;4.90;2.75;;;;;;;;;;5076573;28;20515;-69
2023/05/30 13:07:27;;;;;;;8.15;2.90;;;;;;;;;;5076467;28;20419;-70
2023/05/30 13:09:54;;;;;;;6.57;3.30;;;;;;;;;;5077156;28;20470;-70
2023/05/30 13:12:20;;;;;;;10.10;3.20;;;;;;;;;;5076068;28;20253;-70
2023/05/30 13:14:47;;;;;;;8.13;3.08;;;;;;;;;;5077443;28;20227;-70
2023/05/30 13:17:13;;;;;;;4.30;2.88;;;;;;;;;;5074339;28;20208;-70
2023/05/30 13:19:41;;;;;;;4.15;2.88;;;;;;;;;;5077186;28;20208;-70
2023/05/30 13:22:08;;;;;;;4.28;2.50;;;;;;;;;;5076742;28;20208;-70
2023/05/30 13:24:35;;;;;;;3.28;2.50;;;;;;;;;;5076708;28;20219;-70
2023/05/30 13:27:01;;;;;;;4.22;2.67;;;;;;;;;;5076723;28;20448;-70
2023/05/30 13:29:28;;;;;;;3.47;2.85;;;;;;;;;;5075933;28;20203;-70
2023/05/30 13:31:54;;;;;;;3.72;2.70;;;;;;;;;;5076159;28;20215;-70
2023/05/30 13:34:20;;;;;;;3.72;2.58;;;;;;;;;;5075842;28;20429;-71
2023/05/30 13:36:48;;;;;;;6.60;2.67;;;;;;;;;;5076282;28;20413;-70
2023/05/30 13:39:14;;;;;;;5.18;2.55;;;;;;;;;;5076491;28;20207;-69
2023/05/30 13:41:40;;;;;;;3.92;2.90;;;;;;;;;;5076687;28;20232;-69
2023/05/30 13:44:07;;;;;;;5.90;2.90;;;;;;;;;;5076541;28;20212;-69
2023/05/30 13:46:33;;;;;;;5.63;3.05;;;;;;;;;;5076470;28;20203;-70
2023/05/30 13:49:04;;;;;;;6.18;2.70;;;;;;;;;;5076231;28;20212;-70
2023/05/30 13:51:30;;;;;;;5.53;2.88;;;;;;;;;;5076471;28;20272;-70
2023/05/30 13:53:57;;;;;;;6.30;3.15;;;;;;;;;;5076221;28;20215;-70
2023/05/30 13:56:24;;;;;;;3.33;2.78;;;;;;;;;;5075354;28;20333;-70
2023/05/30 13:58:50;;;;;;;7.05;3.00;;;;;;;;;;5076388;28;20565;-70
2023/05/30 14:01:16;;;;;;;3.90;2.67;;;;;;;;;;5075782;28;20523;-70
2023/05/30 14:03:44;;;;;;;3.85;2.72;;;;;;;;;;5067219;28;20208;-70
2023/05/30 14:06:10;;;;;;;3.95;2.88;;;;;;;;;;5075448;28;20204;-70
2023/05/30 14:08:36;;;;;;;4.72;2.72;;;;;;;;;;5075263;28;20212;-70
2023/05/30 14:11:05;;;;;;;3.00;2.55;;;;;;;;;;5075835;28;20442;-70
2023/05/30 14:13:31;;;;;;;6.22;2.95;;;;;;;;;;5076127;28;20556;-70
2023/05/30 14:15:57;;;;;;;9.77;3.00;;;;;;;;;;5075223;28;20546;-69
2023/05/30 14:18:24;;;;;;;4.85;2.97;;;;;;;;;;5075646;28;20215;-61
2023/05/30 14:20:50;;;;;;;3.47;2.47;;;;;;;;;;5075105;28;20199;-61
2023/05/30 14:23:16;;;;;;;5.97;2.90;;;;;;;;;;5074740;28;20238;-61
2023/05/30 14:25:43;;;;;;;4.97;3.22;;;;;;;;;;5075660;28;20371;-60
2023/05/30 14:28:10;;;;;;;4.47;2.70;;;;;;;;;;5071220;28;20523;-60
2023/05/30 14:30:37;;;;;;;6.35;3.53;;;;;;;;;;5075735;28;20208;-60
2023/05/30 14:33:04;;;;;;;5.88;2.80;;;;;;;;;;5074811;28;20299;-61
2023/05/30 14:35:30;;;;;;;6.38;3.05;;;;;;;;;;5075111;28;20227;-60
2023/05/30 14:37:57;;;;;;;6.30;2.72;;;;;;;;;;5075698;28;20548;-61
2023/05/30 14:40:23;;;;;;;4.35;2.88;;;;;;;;;;5075791;28;20207;-61
2023/05/30 14:42:49;;;;;;;8.77;3.03;;;;;;;;;;5068266;28;20550;-61